createdAt,value
2023-04-26T00:04:40.148Z,98125.88
2023-04-26T00:09:42.542Z,98115.91
2023-04-26T00:14:45.470Z,98108.63
2023-04-26T00:19:47.316Z,98112.72
2023-04-26T00:24:49.122Z,98110.19
2023-04-26T00:29:51.113Z,98098.59
2023-04-26T00:34:53.163Z,98099.81
2023-04-26T00:39:57.455Z,98079.97
2023-04-26T00:44:59.293Z,98074.06
2023-04-26T00:50:01.821Z,98067.09
2023-04-26T00:55:05.284Z,98069.19
2023-04-26T01:00:07.916Z,98066.41
2023-04-26T01:05:09.852Z,98055.75
2023-04-26T01:10:12.112Z,98052.75
2023-04-26T01:15:14.048Z,98034.78
2023-04-26T01:20:16.779Z,98032.91
2023-04-26T01:25:18.754Z,98029.66
2023-04-26T01:30:21.076Z,98032.34
2023-04-26T01:35:22.897Z,98026.41
2023-04-26T01:40:24.687Z,98016.00
2023-04-26T01:45:26.534Z,98005.44
2023-04-26T01:50:46.919Z,97998.19
2023-04-26T01:55:48.784Z,97995.41
2023-04-26T02:00:50.750Z,97987.88
2023-04-26T02:05:52.547Z,97980.81
2023-04-26T02:10:54.427Z,97979.44
2023-04-26T02:15:56.498Z,97975.94
2023-04-26T02:20:58.332Z,97966.84
2023-04-26T02:26:00.249Z,97969.50
2023-04-26T02:31:03.184Z,97958.25
2023-04-26T02:36:06.319Z,97958.38
2023-04-26T02:41:08.448Z,97947.38
2023-04-26T02:46:11.105Z,97950.28
2023-04-26T02:51:14.101Z,97944.13
2023-04-26T02:56:16.305Z,97932.09
2023-04-26T03:01:18.941Z,97935.56
2023-04-26T03:06:21.611Z,97931.28
2023-04-26T03:11:23.571Z,97930.72
2023-04-26T03:16:27.738Z,97929.19
2023-04-26T03:21:29.680Z,97917.47
2023-04-26T03:26:31.635Z,97926.41
2023-04-26T03:31:33.640Z,97921.97
2023-04-26T03:36:35.598Z,97920.53
2023-04-26T03:41:40.614Z,97919.81
2023-04-26T03:46:45.927Z,97916.22
2023-04-26T03:51:47.791Z,97899.75
2023-04-26T03:56:51.386Z,97903.84
2023-04-26T04:01:53.995Z,97893.63
2023-04-26T04:06:56.143Z,97893.72
2023-04-26T04:11:58.107Z,97895.34
2023-04-26T04:17:01.073Z,97892.53
2023-04-26T04:22:06.066Z,97887.59
2023-04-26T04:27:09.101Z,97885.31
2023-04-26T04:32:12.569Z,97882.75
2023-04-26T04:37:15.538Z,97884.78
2023-04-26T04:42:17.524Z,97881.44
2023-04-26T04:47:19.785Z,97886.69
2023-04-26T04:52:22.288Z,97875.16
2023-04-26T04:57:24.127Z,97884.69
2023-04-26T05:02:26.159Z,97886.25
2023-04-26T05:07:29.139Z,97881.97
2023-04-26T05:12:32.439Z,97885.06
2023-04-26T05:17:34.670Z,97886.06
2023-04-26T05:22:47.131Z,97879.75
2023-04-26T05:27:49.079Z,97875.50
2023-04-26T05:33:02.569Z,97881.13
2023-04-26T05:38:23.152Z,97883.53
2023-04-26T05:43:24.945Z,97879.84
2023-04-26T05:48:27.081Z,97876.94
2023-04-26T05:53:28.948Z,97878.56
2023-04-26T05:58:30.880Z,97884.78
2023-04-26T06:03:33.141Z,97882.97
2023-04-26T06:08:35.888Z,97880.88
2023-04-26T06:13:37.825Z,97886.09
2023-04-26T06:18:41.614Z,97887.72
2023-04-26T06:23:43.441Z,97887.28
2023-04-26T06:28:45.414Z,97885.22
2023-04-26T06:33:49.209Z,97893.34
2023-04-26T06:38:51.567Z,97890.13
2023-04-26T06:43:53.617Z,97893.09
2023-04-26T06:48:56.776Z,97885.81
2023-04-26T06:54:01.053Z,97901.63
2023-04-26T06:59:03.957Z,97898.19
2023-04-26T07:04:12.696Z,97898.75
2023-04-26T07:09:14.774Z,97910.53
2023-04-26T07:14:17.349Z,97906.53
2023-04-26T07:19:19.851Z,97913.00
2023-04-26T07:24:21.759Z,97919.47
2023-04-26T07:29:23.924Z,97915.50
2023-04-26T07:34:25.731Z,97926.53
2023-04-26T07:39:27.609Z,97918.31
2023-04-26T07:44:29.475Z,97927.44
2023-04-26T07:49:31.270Z,97930.41
2023-04-26T07:54:33.231Z,97914.88
2023-04-26T07:59:35.116Z,97935.22
2023-04-26T08:04:37.371Z,97930.69
2023-04-26T08:09:39.416Z,97930.72
2023-04-26T08:14:41.478Z,97938.22
2023-04-26T08:19:43.267Z,97940.81
2023-04-26T08:24:50.208Z,97948.84
2023-04-26T08:29:52.078Z,97936.44
2023-04-26T08:34:53.983Z,97946.94
2023-04-26T08:39:55.857Z,97939.53
2023-04-26T08:45:00.946Z,97948.47
2023-04-26T08:50:05.673Z,97952.78
2023-04-26T08:55:10.387Z,97951.22
2023-04-26T09:00:13.675Z,97946.13
2023-04-26T09:05:15.739Z,97955.25
2023-04-26T09:10:21.690Z,97957.38
2023-04-26T09:15:25.690Z,97960.34
2023-04-26T09:20:31.400Z,97961.41
2023-04-26T09:25:33.274Z,97968.13
2023-04-26T09:30:39.352Z,97971.78
2023-04-26T09:35:42.287Z,97971.28
2023-04-26T09:40:48.172Z,97973.50
2023-04-26T09:45:51.858Z,97979.19
2023-04-26T09:50:54.761Z,97989.66
2023-04-26T09:55:57.108Z,97988.81
2023-04-26T10:00:59.598Z,97995.53
2023-04-26T10:06:01.579Z,97986.69
2023-04-26T10:11:11.703Z,98000.38
2023-04-26T10:16:14.090Z,98002.00
2023-04-26T10:21:19.800Z,98013.00
2023-04-26T10:26:40.122Z,98014.84
2023-04-26T10:32:00.513Z,98014.69
2023-04-26T10:37:12.857Z,98026.53
2023-04-26T10:42:25.145Z,98026.38
2023-04-26T10:47:30.961Z,98034.53
2023-04-26T10:52:33.116Z,98029.53
2023-04-26T10:57:46.974Z,98036.16
2023-04-26T11:02:59.167Z,98034.25
2023-04-26T11:08:18.155Z,98034.06
2023-04-26T11:13:20.529Z,98045.50
2023-04-26T11:18:22.602Z,98044.06
2023-04-26T11:23:25.240Z,98040.94
2023-04-26T11:28:27.055Z,98039.03
2023-04-26T11:33:28.823Z,98045.56
2023-04-26T11:38:30.789Z,98065.59
2023-04-26T11:43:32.886Z,98060.03
2023-04-26T11:48:35.857Z,98073.03
2023-04-26T11:53:38.268Z,98076.03
2023-04-26T11:58:40.351Z,98076.38
2023-04-26T12:03:42.475Z,98071.19
2023-04-26T12:08:49.718Z,98085.19
2023-04-26T12:13:51.670Z,98088.97
2023-04-26T12:18:54.430Z,98077.91
2023-04-26T12:23:56.343Z,98091.81
2023-04-26T12:28:58.278Z,98090.81
2023-04-26T12:34:00.149Z,98092.16
2023-04-26T12:39:05.434Z,98090.88
2023-04-26T12:44:08.115Z,98080.06
2023-04-26T12:49:10.143Z,98103.38
2023-04-26T12:54:12.327Z,98094.78
2023-04-26T12:59:14.367Z,98083.31
2023-04-26T13:04:16.610Z,98111.88
2023-04-26T13:09:18.658Z,98115.16
2023-04-26T13:14:20.598Z,98114.09
2023-04-26T13:19:22.489Z,98119.25
2023-04-26T13:24:24.333Z,98135.13
2023-04-26T13:29:26.170Z,98138.09
2023-04-26T13:34:28.288Z,98136.66
2023-04-26T13:39:30.206Z,98138.53
2023-04-26T13:44:32.093Z,98139.22
2023-04-26T13:49:33.932Z,98138.38
2023-04-26T13:54:36.953Z,98146.13
2023-04-26T13:59:40.412Z,98146.53
2023-04-26T14:04:42.611Z,98152.50
2023-04-26T14:09:44.654Z,98143.38
2023-04-26T14:14:47.993Z,98152.84
2023-04-26T14:19:49.956Z,98161.22
2023-04-26T14:24:51.859Z,98161.25
2023-04-26T14:29:54.852Z,98163.41
2023-04-26T14:34:57.002Z,98169.25
2023-04-26T14:40:00.334Z,98166.34
2023-04-26T14:45:02.190Z,98175.75
2023-04-26T14:50:07.942Z,98171.72
2023-04-26T14:55:09.933Z,98187.81
2023-04-26T15:00:15.427Z,98182.41
2023-04-26T15:05:17.860Z,98191.53
2023-04-26T15:10:19.776Z,98196.63
2023-04-26T15:15:21.912Z,98203.56
2023-04-26T15:20:24.541Z,98196.31
2023-04-26T15:25:26.561Z,98199.75
2023-04-26T15:30:30.416Z,98211.03
2023-04-26T15:35:32.447Z,98205.03
2023-04-26T15:40:35.777Z,98215.13
2023-04-26T15:45:38.865Z,98225.78
2023-04-26T15:50:40.821Z,98238.81
2023-04-26T15:55:42.688Z,98227.19
2023-04-26T16:00:44.672Z,98235.72
2023-04-26T16:05:46.484Z,98238.41
2023-04-26T16:10:48.448Z,98251.81
2023-04-26T16:15:50.424Z,98253.63
2023-04-26T16:20:52.413Z,98250.31
2023-04-26T16:25:55.362Z,98266.47
2023-04-26T16:30:57.335Z,98266.63
2023-04-26T16:35:59.300Z,98274.03
2023-04-26T16:41:01.793Z,98283.31
2023-04-26T16:46:04.839Z,98280.25
2023-04-26T16:51:07.893Z,98278.34
2023-04-26T16:56:09.989Z,98283.63
2023-04-26T17:01:12.186Z,98292.66
2023-04-26T17:06:14.421Z,98300.56
2023-04-26T17:11:16.804Z,98292.56
2023-04-26T17:16:18.809Z,98307.84
2023-04-26T17:21:20.800Z,98316.03
2023-04-26T17:26:22.721Z,98333.78
2023-04-26T17:31:24.763Z,98332.50
2023-04-26T17:36:26.741Z,98341.69
2023-04-26T17:41:28.708Z,98343.03
2023-04-26T17:46:30.614Z,98347.41
2023-04-26T17:51:33.172Z,98361.41
2023-04-26T17:56:35.236Z,98361.56
2023-04-26T18:01:37.428Z,98371.84
2023-04-26T18:06:40.315Z,98382.69
2023-04-26T18:11:47.708Z,98385.16
2023-04-26T18:16:49.697Z,98395.66
2023-04-26T18:21:52.697Z,98399.47
2023-04-26T18:26:54.786Z,98401.00
2023-04-26T18:31:56.884Z,98417.13
2023-04-26T18:36:58.815Z,98417.75
2023-04-26T18:42:01.269Z,98428.78
2023-04-26T18:47:03.225Z,98434.72
2023-04-26T18:52:08.748Z,98436.84
2023-04-26T18:57:10.789Z,98435.53
2023-04-26T19:02:12.805Z,98441.69
2023-04-26T19:07:14.838Z,98436.09
2023-04-26T19:12:16.684Z,98445.50
2023-04-26T19:17:18.718Z,98444.63
2023-04-26T19:22:20.705Z,98452.81
2023-04-26T19:27:22.657Z,98456.59
2023-04-26T19:32:24.497Z,98452.97
2023-04-26T19:37:26.510Z,98456.78
2023-04-26T19:42:28.362Z,98453.84
2023-04-26T19:47:30.275Z,98464.94
2023-04-26T19:52:32.154Z,98461.25
2023-04-26T19:57:34.239Z,98468.00
2023-04-26T20:02:36.353Z,98475.75
2023-04-26T20:07:38.200Z,98469.03
2023-04-26T20:12:41.824Z,98473.75
2023-04-26T20:17:43.784Z,98490.03
2023-04-26T20:22:45.725Z,98493.94
2023-04-26T20:27:47.943Z,98505.50
2023-04-26T20:32:49.912Z,98510.06
2023-04-26T20:37:51.994Z,98518.75
2023-04-26T20:42:54.056Z,98520.84
2023-04-26T20:47:56.194Z,98523.50
2023-04-26T20:52:58.164Z,98525.41
2023-04-26T20:58:00.051Z,98533.84
2023-04-26T21:03:02.078Z,98536.13
2023-04-26T21:08:04.297Z,98546.88
2023-04-26T21:13:06.445Z,98546.72
2023-04-26T21:18:08.376Z,98554.94
2023-04-26T21:23:10.848Z,98553.50
2023-04-26T21:28:12.827Z,98545.44
2023-04-26T21:33:16.128Z,98559.28
2023-04-26T21:38:18.024Z,98565.63
2023-04-26T21:43:22.983Z,98561.94
2023-04-26T21:48:25.216Z,98550.91
2023-04-26T21:53:27.346Z,98556.91
2023-04-26T21:58:29.317Z,98564.72
2023-04-26T22:03:31.446Z,98563.53
2023-04-26T22:08:33.530Z,98575.22
2023-04-26T22:13:35.481Z,98572.38
2023-04-26T22:18:37.366Z,98565.25
2023-04-26T22:23:39.313Z,98567.75
2023-04-26T22:28:41.315Z,98577.19
2023-04-26T22:33:43.338Z,98578.06
2023-04-26T22:38:45.160Z,98570.50
2023-04-26T22:43:46.960Z,98572.78
2023-04-26T22:48:48.831Z,98563.38
2023-04-26T22:53:50.738Z,98578.13
2023-04-26T22:58:52.796Z,98583.88
2023-04-26T23:03:54.901Z,98585.72
2023-04-26T23:08:56.939Z,98595.56
2023-04-26T23:14:00.160Z,98593.09
2023-04-26T23:19:02.094Z,98594.38
2023-04-26T23:24:04.401Z,98597.47
2023-04-26T23:29:06.230Z,98602.41
2023-04-26T23:34:08.135Z,98613.47
2023-04-26T23:39:10.220Z,98612.63
2023-04-26T23:44:12.187Z,98625.75
2023-04-26T23:49:14.358Z,98622.44
2023-04-26T23:54:16.701Z,98627.16
2023-04-26T23:59:18.571Z,98628.00
